createdAt,value
2018-10-17T00:02:18.154Z,8.90
2018-10-17T00:04:46.518Z,8.90
2018-10-17T00:07:15.596Z,9.00
2018-10-17T00:09:43.922Z,8.90
2018-10-17T00:12:12.594Z,8.90
2018-10-17T00:14:41.905Z,8.80
2018-10-17T00:17:10.702Z,8.80
2018-10-17T00:19:39.591Z,8.80
2018-10-17T00:22:08.550Z,8.80
2018-10-17T00:24:36.886Z,8.80
2018-10-17T00:27:05.930Z,8.70
2018-10-17T00:29:34.272Z,8.70
2018-10-17T00:32:03.331Z,8.60
2018-10-17T00:34:32.566Z,8.60
2018-10-17T00:37:01.014Z,8.70
2018-10-17T00:39:29.351Z,8.70
2018-10-17T00:41:57.715Z,8.60
2018-10-17T00:44:26.423Z,8.60
2018-10-17T00:46:54.825Z,8.60
2018-10-17T00:49:23.696Z,8.60
2018-10-17T00:51:52.085Z,8.50
2018-10-17T00:54:20.778Z,8.40
2018-10-17T00:56:49.750Z,8.30
2018-10-17T00:59:18.139Z,7.90
2018-10-17T01:01:47.137Z,8.50
2018-10-17T01:04:17.355Z,8.50
2018-10-17T01:06:47.644Z,8.10
2018-10-17T01:09:17.404Z,8.20
2018-10-17T01:11:45.783Z,8.30
2018-10-17T01:14:14.178Z,8.30
2018-10-17T01:16:42.550Z,8.30
2018-10-17T01:19:11.776Z,8.70
2018-10-17T01:21:40.139Z,8.10
2018-10-17T01:24:09.058Z,8.10
2018-10-17T01:26:37.750Z,8.10
2018-10-17T01:29:06.207Z,8.00
2018-10-17T01:31:34.535Z,8.00
2018-10-17T01:34:03.005Z,8.00
2018-10-17T01:36:31.691Z,8.00
2018-10-17T01:39:00.391Z,7.90
2018-10-17T01:41:30.778Z,7.70
2018-10-17T01:43:59.150Z,6.90
2018-10-17T01:46:27.826Z,7.40
2018-10-17T01:48:56.284Z,7.50
2018-10-17T01:51:25.417Z,7.50
2018-10-17T01:53:53.801Z,7.60
2018-10-17T01:56:22.153Z,7.60
2018-10-17T01:58:50.531Z,7.70
2018-10-17T02:01:19.467Z,7.70
2018-10-17T02:03:47.827Z,7.60
2018-10-17T02:06:16.505Z,7.70
2018-10-17T02:08:45.228Z,7.60
2018-10-17T02:11:14.800Z,7.60
2018-10-17T02:13:43.095Z,7.60
2018-10-17T02:16:11.471Z,7.60
2018-10-17T02:18:40.102Z,7.70
2018-10-17T02:21:08.475Z,7.60
2018-10-17T02:23:37.186Z,7.70
2018-10-17T02:26:05.582Z,7.60
2018-10-17T02:28:34.714Z,7.60
2018-10-17T02:31:03.965Z,7.60
2018-10-17T02:33:32.282Z,7.60
2018-10-17T02:36:00.635Z,7.50
2018-10-17T02:38:29.013Z,7.50
2018-10-17T02:40:57.433Z,7.40
2018-10-17T02:43:26.098Z,7.20
2018-10-17T02:45:54.439Z,7.20
2018-10-17T02:48:22.818Z,7.20
2018-10-17T02:50:51.527Z,7.10
2018-10-17T02:53:20.221Z,6.90
2018-10-17T02:55:48.805Z,7.20
2018-10-17T02:58:17.391Z,7.20
2018-10-17T03:00:46.134Z,7.20
2018-10-17T03:03:15.171Z,7.20
2018-10-17T03:05:43.523Z,7.30
2018-10-17T03:08:11.926Z,7.20
2018-10-17T03:10:40.267Z,7.20
2018-10-17T03:13:08.723Z,7.20
2018-10-17T03:15:37.372Z,7.10
2018-10-17T03:18:06.391Z,7.10
2018-10-17T03:20:34.787Z,7.20
2018-10-17T03:23:03.217Z,7.20
2018-10-17T03:25:31.539Z,7.20
2018-10-17T03:28:00.314Z,7.10
2018-10-17T03:30:29.181Z,7.00
2018-10-17T03:32:58.415Z,6.80
2018-10-17T03:35:26.835Z,6.80
2018-10-17T03:37:55.198Z,6.70
2018-10-17T03:40:23.867Z,6.70
2018-10-17T03:42:52.208Z,6.70
2018-10-17T03:45:21.187Z,6.70
2018-10-17T03:47:49.776Z,6.70
2018-10-17T03:50:18.132Z,6.70
2018-10-17T03:52:46.850Z,6.60
2018-10-17T03:55:15.542Z,6.70
2018-10-17T03:57:44.670Z,6.90
2018-10-17T04:00:13.360Z,6.70
2018-10-17T04:02:42.622Z,6.70
2018-10-17T04:05:11.364Z,6.70
2018-10-17T04:07:39.951Z,6.70
2018-10-17T04:10:08.555Z,6.70
2018-10-17T04:12:37.343Z,6.70
2018-10-17T04:15:06.563Z,6.80
2018-10-17T04:17:35.636Z,6.80
2018-10-17T04:20:04.108Z,6.80
2018-10-17T04:22:32.480Z,6.80
2018-10-17T04:25:01.190Z,6.80
2018-10-17T04:27:29.762Z,6.90
2018-10-17T04:29:58.406Z,6.80
2018-10-17T04:32:26.771Z,6.80
2018-10-17T04:34:56.671Z,6.80
2018-10-17T04:37:25.265Z,6.80
2018-10-17T04:39:53.931Z,6.80
2018-10-17T04:42:22.632Z,6.80
2018-10-17T04:44:51.308Z,6.70
2018-10-17T04:47:19.672Z,6.70
2018-10-17T04:49:48.283Z,6.60
2018-10-17T04:52:16.926Z,6.70
2018-10-17T04:54:45.815Z,6.50
2018-10-17T04:57:15.121Z,6.30
2018-10-17T04:59:43.740Z,6.30
2018-10-17T05:02:12.433Z,6.30
2018-10-17T05:04:40.978Z,6.30
2018-10-17T05:07:09.345Z,6.30
2018-10-17T05:09:37.643Z,6.30
2018-10-17T05:12:06.050Z,6.30
2018-10-17T05:14:35.787Z,6.20
2018-10-17T05:17:04.207Z,6.20
2018-10-17T05:19:32.783Z,6.20
2018-10-17T05:22:01.139Z,6.20
2018-10-17T05:24:30.168Z,6.30
2018-10-17T05:26:58.871Z,6.30
2018-10-17T05:29:27.445Z,6.20
2018-10-17T05:31:56.077Z,6.20
2018-10-17T05:34:24.788Z,6.20
2018-10-17T05:36:53.441Z,6.10
2018-10-17T05:39:22.074Z,6.10
2018-10-17T05:41:50.458Z,6.00
2018-10-17T05:44:18.843Z,6.00
2018-10-17T05:46:47.326Z,6.00
2018-10-17T05:49:16.950Z,5.90
2018-10-17T05:51:45.651Z,6.00
2018-10-17T05:54:14.579Z,5.90
2018-10-17T05:56:43.551Z,6.00
2018-10-17T05:59:11.969Z,6.10
2018-10-17T06:01:40.379Z,6.10
2018-10-17T06:04:08.931Z,6.10
2018-10-17T06:06:37.598Z,6.10
2018-10-17T06:09:08.148Z,6.20
2018-10-17T06:11:36.831Z,6.20
2018-10-17T06:14:05.461Z,6.30
2018-10-17T06:16:33.898Z,6.40
2018-10-17T06:19:02.607Z,6.40
2018-10-17T06:21:31.551Z,6.50
2018-10-17T06:24:00.683Z,6.60
2018-10-17T06:26:29.051Z,6.60
2018-10-17T06:28:57.458Z,6.60
2018-10-17T06:31:25.819Z,6.70
2018-10-17T06:33:54.509Z,6.70
2018-10-17T06:36:23.162Z,6.80
2018-10-17T06:38:51.791Z,6.90
2018-10-17T06:41:20.164Z,7.00
2018-10-17T06:43:48.851Z,7.00
2018-10-17T06:46:17.791Z,7.00
2018-10-17T06:48:46.160Z,7.00
2018-10-17T06:51:14.568Z,7.10
2018-10-17T06:53:43.244Z,7.10
2018-10-17T06:56:11.875Z,7.20
2018-10-17T06:58:40.231Z,7.40
2018-10-17T07:01:08.638Z,7.60
2018-10-17T07:03:36.991Z,7.70
2018-10-17T07:06:05.624Z,7.80
2018-10-17T07:08:34.065Z,8.10
2018-10-17T07:11:02.591Z,8.40
2018-10-17T07:13:31.238Z,8.70
2018-10-17T07:15:59.730Z,9.00
2018-10-17T07:18:31.215Z,9.60
2018-10-17T07:20:59.842Z,9.60
2018-10-17T07:23:28.486Z,10.00
2018-10-17T07:25:57.098Z,10.30
2018-10-17T07:28:25.495Z,10.70
2018-10-17T07:30:54.379Z,11.10
2018-10-17T07:33:22.719Z,11.30
2018-10-17T07:35:51.551Z,11.70
2018-10-17T07:38:20.096Z,12.10
2018-10-17T07:40:48.482Z,12.20
2018-10-17T07:43:16.836Z,12.70
2018-10-17T07:45:45.580Z,13.00
2018-10-17T07:48:13.955Z,13.40
2018-10-17T07:50:42.525Z,13.40
2018-10-17T07:53:11.302Z,13.80
2018-10-17T07:55:40.211Z,14.30
2018-10-17T07:58:08.579Z,14.50
2018-10-17T08:00:37.263Z,14.80
2018-10-17T08:03:06.202Z,15.00
2018-10-17T08:05:35.743Z,15.30
2018-10-17T08:08:04.156Z,15.70
2018-10-17T08:10:32.819Z,16.00
2018-10-17T08:13:01.474Z,16.50
2018-10-17T08:15:30.450Z,16.70
2018-10-17T08:17:58.855Z,16.90
2018-10-17T08:20:27.206Z,17.10
2018-10-17T08:22:55.564Z,17.30
2018-10-17T08:25:24.135Z,17.40
2018-10-17T08:27:52.543Z,17.70
2018-10-17T08:30:20.911Z,18.10
2018-10-17T08:32:49.311Z,18.50
2018-10-17T08:35:18.254Z,18.80
2018-10-17T08:37:47.017Z,19.00
2018-10-17T08:40:15.304Z,19.30
2018-10-17T08:42:43.648Z,19.20
2018-10-17T08:45:12.103Z,19.20
2018-10-17T08:47:40.395Z,19.40
2018-10-17T08:50:08.835Z,19.60
2018-10-17T08:52:37.206Z,20.00
2018-10-17T08:55:06.235Z,20.30
2018-10-17T08:57:34.855Z,20.50
2018-10-17T09:00:03.980Z,20.40
2018-10-17T09:02:32.371Z,20.30
2018-10-17T09:05:00.739Z,20.20
2018-10-17T09:07:29.459Z,20.00
2018-10-17T09:09:57.808Z,20.40
2018-10-17T09:12:26.175Z,20.60
2018-10-17T09:14:54.547Z,21.10
2018-10-17T09:17:23.207Z,21.30
2018-10-17T09:19:51.834Z,22.00
2018-10-17T09:22:20.299Z,22.30
2018-10-17T09:24:48.414Z,22.60
2018-10-17T09:27:16.775Z,23.10
2018-10-17T09:29:45.190Z,23.20
2018-10-17T09:32:13.899Z,23.40
2018-10-17T09:34:42.259Z,23.40
2018-10-17T09:37:10.734Z,23.70
2018-10-17T09:39:39.367Z,23.70
2018-10-17T09:42:07.802Z,24.00
2018-10-17T09:44:36.395Z,24.60
2018-10-17T09:47:05.162Z,24.60
2018-10-17T09:49:33.510Z,24.30
2018-10-17T09:52:02.633Z,24.70
2018-10-17T09:54:31.047Z,25.00
2018-10-17T09:56:59.935Z,25.50
2018-10-17T09:59:28.611Z,25.60
2018-10-17T10:01:56.974Z,25.80
2018-10-17T10:04:25.887Z,25.70
2018-10-17T10:06:54.875Z,26.00
2018-10-17T10:09:23.255Z,26.30
2018-10-17T10:11:52.270Z,24.50
2018-10-17T10:14:20.643Z,24.60
2018-10-17T10:16:49.307Z,25.10
2018-10-17T10:19:17.666Z,25.60
2018-10-17T10:21:46.370Z,25.60
2018-10-17T10:24:14.848Z,26.10
2018-10-17T10:26:43.435Z,26.80
2018-10-17T10:29:12.066Z,26.40
2018-10-17T10:31:40.443Z,26.60
2018-10-17T10:34:08.957Z,26.90
2018-10-17T10:36:37.830Z,27.10
2018-10-17T10:39:09.678Z,27.80
2018-10-17T10:41:38.482Z,28.40
2018-10-17T10:44:07.514Z,28.70
2018-10-17T10:46:36.010Z,28.90
2018-10-17T10:49:04.774Z,28.90
2018-10-17T10:51:33.182Z,28.70
2018-10-17T10:54:01.723Z,29.10
2018-10-17T10:56:30.388Z,29.60
2018-10-17T10:58:58.766Z,30.10
2018-10-17T11:01:27.152Z,30.30
2018-10-17T11:03:55.530Z,30.80
2018-10-17T11:06:23.901Z,31.10
2018-10-17T11:08:52.863Z,31.10
2018-10-17T11:11:21.239Z,30.90
2018-10-17T11:13:49.644Z,30.70
2018-10-17T11:16:18.275Z,30.60
2018-10-17T11:18:47.027Z,30.60
2018-10-17T11:21:15.460Z,30.40
2018-10-17T11:23:44.091Z,30.70
2018-10-17T11:26:12.834Z,30.90
2018-10-17T11:28:41.495Z,31.50
2018-10-17T11:31:09.847Z,31.50
2018-10-17T11:33:38.775Z,31.80
2018-10-17T11:36:07.506Z,32.20
2018-10-17T11:38:36.627Z,31.40
2018-10-17T11:41:05.377Z,31.50
2018-10-17T11:43:33.759Z,31.70
2018-10-17T11:46:02.404Z,31.70
2018-10-17T11:48:30.778Z,31.30
2018-10-17T11:50:59.169Z,31.60
2018-10-17T11:53:28.082Z,31.30
2018-10-17T11:55:56.434Z,30.90
2018-10-17T11:58:25.022Z,30.60
2018-10-17T12:00:53.695Z,30.90
2018-10-17T12:03:22.090Z,31.10
2018-10-17T12:05:50.677Z,30.80
2018-10-17T12:08:19.190Z,30.90
2018-10-17T12:10:47.911Z,31.30
2018-10-17T12:13:16.608Z,29.90
2018-10-17T12:15:45.234Z,30.20
2018-10-17T12:18:13.683Z,30.50
2018-10-17T12:20:42.230Z,30.80
2018-10-17T12:23:10.931Z,31.10
2018-10-17T12:25:39.299Z,30.80
2018-10-17T12:28:08.361Z,31.20
2018-10-17T12:30:36.874Z,31.40
2018-10-17T12:33:05.541Z,31.20
2018-10-17T12:35:33.879Z,29.50
2018-10-17T12:38:02.271Z,30.20
2018-10-17T12:40:30.700Z,30.20
2018-10-17T12:42:59.595Z,31.00
2018-10-17T12:45:27.953Z,31.10
2018-10-17T12:47:56.350Z,30.40
2018-10-17T12:50:24.789Z,30.20
2018-10-17T12:52:53.202Z,30.70
2018-10-17T12:55:21.447Z,31.00
2018-10-17T12:57:50.081Z,31.00
2018-10-17T13:00:18.675Z,31.10
2018-10-17T13:02:47.271Z,31.00
2018-10-17T13:05:15.690Z,31.40
2018-10-17T13:07:44.334Z,31.30
2018-10-17T13:10:12.734Z,30.80
2018-10-17T13:12:41.531Z,30.80
2018-10-17T13:15:13.749Z,30.60
2018-10-17T13:17:43.838Z,30.30
2018-10-17T13:20:13.066Z,29.70
2018-10-17T13:22:41.748Z,29.30
2018-10-17T13:25:10.559Z,29.40
2018-10-17T13:27:39.860Z,29.40
2018-10-17T13:30:09.179Z,29.50
2018-10-17T13:32:37.731Z,29.40
2018-10-17T13:35:06.795Z,29.30
2018-10-17T13:37:35.435Z,28.70
2018-10-17T13:40:03.851Z,28.10
2018-10-17T13:42:32.252Z,28.00
2018-10-17T13:45:00.651Z,28.00
2018-10-17T13:47:29.042Z,28.00
2018-10-17T13:49:57.720Z,27.70
2018-10-17T13:52:26.619Z,27.30
2018-10-17T13:54:55.239Z,27.10
2018-10-17T13:57:23.622Z,26.60
2018-10-17T13:59:52.013Z,26.20
2018-10-17T14:02:20.370Z,25.90
2018-10-17T14:04:48.779Z,25.80
2018-10-17T14:07:17.170Z,25.30
2018-10-17T14:09:45.851Z,25.30
2018-10-17T14:12:14.756Z,25.10
2018-10-17T14:14:43.089Z,25.00
2018-10-17T14:17:11.470Z,25.00
2018-10-17T14:19:39.850Z,24.90
2018-10-17T14:22:09.111Z,24.80
2018-10-17T14:24:37.486Z,24.60
2018-10-17T14:27:07.133Z,24.50
2018-10-17T14:29:36.281Z,24.30
2018-10-17T14:32:05.095Z,24.30
2018-10-17T14:34:33.785Z,24.20
2018-10-17T14:37:02.808Z,24.10
2018-10-17T14:39:31.331Z,24.00
2018-10-17T14:41:59.893Z,24.10
2018-10-17T14:44:28.539Z,24.00
2018-10-17T14:46:56.923Z,24.00
2018-10-17T14:49:25.267Z,23.90
2018-10-17T14:51:53.755Z,23.70
2018-10-17T14:54:22.136Z,23.60
2018-10-17T14:56:50.503Z,23.40
2018-10-17T14:59:19.368Z,23.20
2018-10-17T15:01:47.736Z,23.10
2018-10-17T15:04:16.111Z,23.10
2018-10-17T15:06:44.996Z,22.90
2018-10-17T15:09:13.414Z,22.90
2018-10-17T15:11:41.827Z,22.80
2018-10-17T15:14:10.106Z,22.50
2018-10-17T15:16:38.577Z,22.40
2018-10-17T15:19:07.791Z,22.30
2018-10-17T15:21:36.631Z,22.30
2018-10-17T15:24:05.524Z,22.20
2018-10-17T15:26:34.080Z,21.90
2018-10-17T15:29:02.855Z,21.70
2018-10-17T15:31:31.327Z,21.60
2018-10-17T15:33:59.905Z,21.50
2018-10-17T15:36:28.545Z,21.40
2018-10-17T15:38:56.943Z,21.30
2018-10-17T15:41:25.336Z,21.30
2018-10-17T15:43:54.066Z,21.10
2018-10-17T15:46:22.453Z,21.00
2018-10-17T15:48:50.912Z,20.80
2018-10-17T15:51:19.277Z,20.80
2018-10-17T15:53:48.095Z,20.60
2018-10-17T15:56:16.685Z,20.60
2018-10-17T15:58:45.068Z,20.40
2018-10-17T16:01:13.784Z,20.30
2018-10-17T16:03:42.119Z,20.20
2018-10-17T16:06:10.571Z,20.10
2018-10-17T16:08:39.178Z,20.00
2018-10-17T16:11:07.579Z,19.90
2018-10-17T16:13:36.178Z,19.80
2018-10-17T16:16:04.844Z,19.70
2018-10-17T16:18:33.197Z,19.60
2018-10-17T16:21:01.920Z,19.50
2018-10-17T16:23:30.302Z,19.40
2018-10-17T16:25:58.745Z,19.30
2018-10-17T16:28:27.350Z,19.20
2018-10-17T16:30:55.964Z,19.00
2018-10-17T16:33:24.330Z,18.90
2018-10-17T16:35:52.985Z,18.80
2018-10-17T16:38:21.699Z,18.70
2018-10-17T16:40:50.722Z,18.60
2018-10-17T16:43:19.238Z,18.50
2018-10-17T16:45:48.172Z,18.40
2018-10-17T16:48:17.098Z,18.30
2018-10-17T16:50:46.223Z,18.10
2018-10-17T16:53:15.761Z,17.90
2018-10-17T16:55:44.456Z,17.90
2018-10-17T16:58:13.155Z,17.60
2018-10-17T17:00:41.564Z,17.30
2018-10-17T17:03:10.349Z,17.20
2018-10-17T17:05:38.931Z,17.00
2018-10-17T17:08:07.783Z,16.80
2018-10-17T17:10:36.644Z,16.70
2018-10-17T17:13:05.519Z,16.60
2018-10-17T17:15:34.167Z,16.60
2018-10-17T17:18:02.604Z,16.60
2018-10-17T17:20:31.209Z,16.50
2018-10-17T17:22:59.883Z,16.40
2018-10-17T17:25:28.222Z,16.40
2018-10-17T17:27:56.594Z,16.30
2018-10-17T17:30:25.381Z,16.20
2018-10-17T17:32:54.051Z,15.90
2018-10-17T17:37:51.413Z,15.50
2018-10-17T17:40:19.871Z,15.40
2018-10-17T17:42:48.239Z,15.10
2018-10-17T17:45:16.887Z,15.10
2018-10-17T17:47:46.116Z,15.20
2018-10-17T17:50:14.668Z,15.30
2018-10-17T17:52:43.288Z,15.30
2018-10-17T17:55:11.690Z,15.20
2018-10-17T17:57:40.349Z,15.30
2018-10-17T18:00:09.565Z,15.10
2018-10-17T18:02:38.205Z,14.90
2018-10-17T18:05:07.398Z,14.60
2018-10-17T18:07:36.011Z,14.60
2018-10-17T18:10:04.676Z,14.60
2018-10-17T18:12:33.092Z,14.60
2018-10-17T18:15:02.117Z,14.70
2018-10-17T18:17:30.747Z,15.10
2018-10-17T18:20:00.512Z,15.00
2018-10-17T18:22:29.788Z,15.00
2018-10-17T18:24:58.056Z,15.20
2018-10-17T18:27:26.466Z,15.00
2018-10-17T18:29:54.824Z,14.80
2018-10-17T18:32:23.650Z,14.50
2018-10-17T18:34:52.642Z,14.30
2018-10-17T18:37:21.063Z,14.10
2018-10-17T18:39:49.706Z,14.00
2018-10-17T18:42:18.127Z,14.10
2018-10-17T18:44:46.983Z,14.10
2018-10-17T18:47:15.350Z,14.10
2018-10-17T18:49:44.390Z,14.20
2018-10-17T18:52:12.808Z,14.20
2018-10-17T18:54:41.371Z,14.20
2018-10-17T18:57:10.378Z,14.20
2018-10-17T18:59:39.007Z,14.10
2018-10-17T19:02:07.670Z,14.10
2018-10-17T19:04:37.124Z,14.00
2018-10-17T19:07:05.895Z,14.10
2018-10-17T19:09:34.652Z,14.20
2018-10-17T19:12:03.481Z,14.30
2018-10-17T19:14:31.850Z,14.20
2018-10-17T19:17:00.283Z,14.10
2018-10-17T19:19:28.715Z,14.10
2018-10-17T19:21:57.072Z,13.70
2018-10-17T19:24:25.481Z,13.50
2018-10-17T19:26:53.858Z,13.50
2018-10-17T19:29:22.490Z,13.50
2018-10-17T19:31:50.871Z,13.40
2018-10-17T19:34:19.217Z,13.50
2018-10-17T19:36:48.262Z,13.50
2018-10-17T19:39:16.700Z,13.50
2018-10-17T19:41:45.042Z,13.40
2018-10-17T19:44:13.450Z,13.40
2018-10-17T19:46:42.021Z,13.40
2018-10-17T19:49:10.650Z,13.20
2018-10-17T19:51:39.038Z,13.20
2018-10-17T19:54:08.050Z,13.20
2018-10-17T19:56:36.911Z,13.20
2018-10-17T19:59:06.131Z,13.10
2018-10-17T20:01:34.534Z,13.20
2018-10-17T20:04:02.915Z,12.90
2018-10-17T20:06:31.654Z,12.90
2018-10-17T20:09:00.332Z,12.80
2018-10-17T20:11:28.686Z,12.80
2018-10-17T20:13:57.050Z,12.80
2018-10-17T20:16:25.583Z,12.80
2018-10-17T20:18:54.715Z,12.70
2018-10-17T20:21:23.079Z,12.70
2018-10-17T20:23:51.827Z,12.70
2018-10-17T20:26:20.539Z,12.60
2018-10-17T20:28:49.465Z,12.60
2018-10-17T20:31:17.850Z,12.70
2018-10-17T20:33:46.393Z,12.60
2018-10-17T20:36:15.471Z,12.30
2018-10-17T20:38:44.403Z,12.20
2018-10-17T20:41:13.255Z,12.10
2018-10-17T20:43:41.962Z,12.10
2018-10-17T20:46:10.332Z,12.20
2018-10-17T20:48:38.719Z,12.20
2018-10-17T20:51:08.036Z,12.10
2018-10-17T20:53:36.428Z,12.10
2018-10-17T20:56:04.868Z,12.10
2018-10-17T20:58:33.181Z,12.00
2018-10-17T21:01:01.577Z,12.00
2018-10-17T21:03:30.195Z,12.00
2018-10-17T21:05:58.551Z,12.00
2018-10-17T21:08:27.192Z,12.00
2018-10-17T21:10:55.544Z,12.00
2018-10-17T21:13:24.159Z,12.10
2018-10-17T21:15:52.531Z,12.10
2018-10-17T21:18:20.993Z,12.10
2018-10-17T21:20:49.291Z,12.10
2018-10-17T21:23:17.640Z,12.10
2018-10-17T21:25:46.003Z,12.10
2018-10-17T21:28:14.592Z,12.00
2018-10-17T21:30:42.986Z,11.90
2018-10-17T21:33:11.367Z,11.80
2018-10-17T21:35:39.955Z,11.60
2018-10-17T21:38:08.399Z,11.60
2018-10-17T21:40:36.995Z,11.40
2018-10-17T21:43:05.703Z,11.30
2018-10-17T21:45:34.391Z,11.20
2018-10-17T21:48:02.747Z,11.00
2018-10-17T21:50:31.178Z,11.00
2018-10-17T21:52:59.807Z,11.00
2018-10-17T21:55:28.422Z,11.00
2018-10-17T21:57:57.074Z,11.00
2018-10-17T22:00:25.966Z,11.00
2018-10-17T22:02:54.653Z,11.10
2018-10-17T22:05:23.306Z,11.10
2018-10-17T22:07:52.454Z,11.10
2018-10-17T22:10:21.163Z,10.90
2018-10-17T22:12:49.874Z,10.50
2018-10-17T22:15:18.266Z,10.40
2018-10-17T22:17:46.874Z,10.40
2018-10-17T22:20:15.283Z,10.40
2018-10-17T22:22:44.003Z,10.50
2018-10-17T22:25:12.675Z,10.50
2018-10-17T22:27:41.298Z,10.50
2018-10-17T22:30:10.039Z,10.50
2018-10-17T22:32:38.694Z,10.40
2018-10-17T22:35:07.187Z,10.30
2018-10-17T22:37:36.174Z,10.30
2018-10-17T22:40:04.627Z,10.20
2018-10-17T22:42:33.214Z,10.20
2018-10-17T22:45:01.572Z,10.20
2018-10-17T22:47:30.194Z,10.20
2018-10-17T22:49:58.861Z,10.20
2018-10-17T22:52:27.225Z,10.30
2018-10-17T22:54:56.187Z,10.20
2018-10-17T22:57:24.555Z,10.20
2018-10-17T22:59:53.261Z,10.20
2018-10-17T23:02:21.634Z,10.20
2018-10-17T23:04:50.255Z,10.20
2018-10-17T23:07:18.635Z,10.20
2018-10-17T23:09:46.978Z,10.20
2018-10-17T23:12:15.627Z,9.90
2018-10-17T23:14:43.991Z,9.70
2018-10-17T23:17:12.594Z,9.70
2018-10-17T23:19:41.259Z,9.70
2018-10-17T23:22:09.630Z,9.60
2018-10-17T23:24:37.990Z,9.50
2018-10-17T23:27:06.423Z,9.60
2018-10-17T23:29:34.754Z,9.60
2018-10-17T23:32:03.176Z,9.60
2018-10-17T23:34:31.827Z,9.50
2018-10-17T23:37:00.426Z,9.40
2018-10-17T23:39:28.798Z,9.30
2018-10-17T23:41:57.982Z,9.40
2018-10-17T23:44:26.419Z,9.50
2018-10-17T23:46:55.350Z,9.50
2018-10-17T23:49:24.238Z,9.50
2018-10-17T23:51:52.843Z,9.50
2018-10-17T23:54:21.179Z,9.50
2018-10-17T23:56:49.810Z,9.50
2018-10-17T23:59:18.142Z,9.50
